Time;durP1;ratioP1;P1;durP2;ratioP2;P2;SDS_P1;SDS_P2;PMS_P1;PMS_P2;Temp;Humidity;BMP_temperature;BMP_pressure;BME280_temperature;BME280_humidity;BME280_pressure;Samples;Min_cycle;Max_cycle;Signal;HPM_P1;HPM_P2
2022/04/17 00:02:01;;;;;;;12.75;8.60;;;;;;;11.02;55.49;93219.66;5091579;28;20055;-38
2022/04/17 00:04:27;;;;;;;11.57;8.30;;;;;;;11.02;56.38;93231.44;5091439;28;20035;-38
2022/04/17 00:06:52;;;;;;;9.18;7.28;;;;;;;10.97;56.40;93228.88;5091231;28;20600;-38
2022/04/17 00:09:18;;;;;;;12.32;8.40;;;;;;;10.83;58.42;93202.78;5091417;28;20032;-38
2022/04/17 00:11:44;;;;;;;9.73;7.75;;;;;;;10.85;58.50;93225.06;5091474;28;20028;-38
2022/04/17 00:14:12;;;;;;;10.65;7.95;;;;;;;10.71;59.70;93218.25;5096956;28;20089;-38
2022/04/17 00:16:40;;;;;;;10.63;7.75;;;;;;;10.65;60.33;93205.38;5091151;28;20036;-38
2022/04/17 00:19:06;;;;;;;12.02;8.45;;;;;;;10.60;61.32;93211.09;5090986;28;20721;-38
2022/04/17 00:21:32;;;;;;;12.27;9.18;;;;;;;10.64;61.48;93212.22;5091079;28;20115;-38
2022/04/17 00:23:58;;;;;;;9.88;8.27;;;;;;;10.57;62.20;93204.66;5091165;28;20099;-38
2022/04/17 00:26:23;;;;;;;15.73;10.20;;;;;;;10.49;62.87;93197.69;5091196;28;20408;-39
2022/04/17 00:28:48;;;;;;;12.43;9.68;;;;;;;10.41;63.14;93196.97;5090943;28;20515;-38
2022/04/17 00:31:14;;;;;;;10.98;8.50;;;;;;;10.45;63.00;93200.81;5091055;28;20024;-38
2022/04/17 00:33:39;;;;;;;14.45;9.60;;;;;;;10.38;63.14;93187.75;5091096;28;20031;-39
2022/04/17 00:36:05;;;;;;;16.15;9.70;;;;;;;10.35;63.48;93180.59;5090997;28;20008;-38
2022/04/17 00:38:30;;;;;;;11.00;9.30;;;;;;;10.37;63.34;93178.00;5091014;28;20500;-38
2022/04/17 00:40:56;;;;;;;13.80;9.57;;;;;;;10.30;62.59;93172.50;5090900;28;20020;-38
2022/04/17 00:43:26;;;;;;;14.85;9.60;;;;;;;10.20;62.89;93174.38;5090960;28;20046;-38
2022/04/17 00:45:52;;;;;;;11.00;8.93;;;;;;;10.21;62.25;93167.53;5090695;28;20056;-38
2022/04/17 00:48:18;;;;;;;10.05;8.88;;;;;;;10.18;63.56;93172.13;5090600;28;20519;-38
2022/04/17 00:50:45;;;;;;;10.65;8.73;;;;;;;10.19;63.32;93157.06;5090757;28;20028;-38
2022/04/17 00:53:12;;;;;;;12.98;10.05;;;;;;;10.30;63.62;93150.44;5090535;28;20489;-38
2022/04/17 00:55:38;;;;;;;11.85;9.75;;;;;;;10.26;63.99;93139.78;5090492;28;20095;-38
2022/04/17 00:58:03;;;;;;;14.10;9.25;;;;;;;10.20;62.41;93136.44;5089571;28;20472;-38
2022/04/17 01:00:29;;;;;;;11.10;8.38;;;;;;;10.29;62.82;93141.41;5089069;28;20481;-38
2022/04/17 01:02:55;;;;;;;10.07;7.43;;;;;;;10.29;62.62;93135.91;5090343;28;20115;-38
2022/04/17 01:05:20;;;;;;;14.20;8.75;;;;;;;10.27;61.58;93132.22;5090560;28;20020;-38
2022/04/17 01:07:46;;;;;;;32.58;21.13;;;;;;;10.38;63.39;93131.84;5090258;28;20027;-38
2022/04/17 01:10:12;;;;;;;13.20;8.77;;;;;;;10.37;62.52;93133.84;5097607;28;20020;-38
2022/04/17 01:12:37;;;;;;;12.70;9.40;;;;;;;10.40;62.88;93126.50;5107734;28;20088;-38
2022/04/17 01:15:03;;;;;;;10.13;8.38;;;;;;;10.31;63.08;93125.03;5089695;28;20048;-38
2022/04/17 01:17:29;;;;;;;18.02;11.98;;;;;;;10.37;62.58;93138.66;5090232;28;20024;-38
2022/04/17 01:19:54;;;;;;;15.95;11.93;;;;;;;10.45;63.39;93131.81;5089147;28;20032;-38
2022/04/17 01:22:20;;;;;;;9.70;8.07;;;;;;;10.39;62.69;93139.56;5090458;28;20520;-39
2022/04/17 01:27:30;;;;;;;9.75;8.10;;;;;;;10.39;61.99;93131.28;5090223;28;20482;-38
2022/04/17 01:29:56;;;;;;;8.65;7.00;;;;;;;10.37;61.23;93133.13;5090113;28;20024;-38
2022/04/17 01:32:21;;;;;;;10.32;7.90;;;;;;;10.30;62.00;93131.84;5090403;28;20048;-38
2022/04/17 01:34:48;;;;;;;9.52;8.20;;;;;;;10.29;61.93;93130.38;5090330;28;20039;-38
2022/04/17 01:37:14;;;;;;;9.93;7.93;;;;;;;10.20;60.52;93119.91;5090384;28;20028;-38
2022/04/17 01:39:39;;;;;;;12.38;9.40;;;;;;;10.21;61.32;93137.94;5090012;28;20031;-38
2022/04/17 01:42:05;;;;;;;15.38;10.32;;;;;;;10.25;61.09;93132.03;5090015;28;20028;-38
2022/04/17 01:44:31;;;;;;;9.27;7.53;;;;;;;10.06;61.05;93126.16;5089876;28;20568;-38
2022/04/17 01:46:58;;;;;;;11.50;8.55;;;;;;;10.04;61.52;93123.94;5088779;28;20027;-38
2022/04/17 01:49:23;;;;;;;10.43;7.78;;;;;;;9.93;61.34;93103.00;5090299;28;20066;-38
2022/04/17 01:51:51;;;;;;;10.15;8.68;;;;;;;9.94;62.11;93112.72;5090196;28;20493;-38
2022/04/17 01:54:18;;;;;;;11.57;8.48;;;;;;;9.89;62.39;93123.97;5089885;28;20561;-38
2022/04/17 01:56:44;;;;;;;10.48;7.93;;;;;;;9.87;63.51;93124.50;5090198;28;20494;-38
2022/04/17 01:59:11;;;;;;;8.95;7.85;;;;;;;9.75;62.95;93117.91;5090128;28;20024;-38
2022/04/17 02:01:38;;;;;;;10.18;7.93;;;;;;;9.79;63.01;93112.75;5089774;28;20028;-38
2022/04/17 02:04:04;;;;;;;9.70;7.15;;;;;;;9.71;63.38;93116.78;5090173;28;20020;-38
2022/04/17 02:06:30;;;;;;;9.18;8.05;;;;;;;9.62;63.50;93114.56;5097328;28;20539;-38
2022/04/17 02:08:56;;;;;;;10.15;8.20;;;;;;;9.58;63.91;93111.44;5110351;28;20019;-38
2022/04/17 02:11:24;;;;;;;9.82;8.38;;;;;;;9.53;64.48;93115.84;5110141;28;20076;-38
2022/04/17 02:13:50;;;;;;;10.05;7.10;;;;;;;9.52;64.89;93108.16;5100513;28;20016;-37
2022/04/17 02:16:19;;;;;;;8.90;7.82;;;;;;;9.57;64.38;93101.72;5093221;28;20043;-38
2022/04/17 02:18:48;;;;;;;12.13;8.40;;;;;;;9.59;65.04;93094.38;5093726;28;20081;-38
2022/04/17 02:21:16;;;;;;;12.05;8.50;;;;;;;9.68;65.23;93101.38;5093529;28;20043;-38
2022/04/17 02:23:42;;;;;;;8.77;7.82;;;;;;;9.69;63.91;93089.78;5093313;28;20028;-38
2022/04/17 02:26:08;;;;;;;12.80;8.55;;;;;;;9.66;65.21;93099.13;5093310;28;20119;-38
2022/04/17 02:28:35;;;;;;;11.77;8.52;;;;;;;9.80;65.05;93100.44;5092664;28;20060;-38
2022/04/17 02:31:04;;;;;;;12.70;8.00;;;;;;;9.93;64.24;93099.50;5092484;28;20111;-38
2022/04/17 02:33:30;;;;;;;;;;;;;;;9.92;63.72;93103.53;5093621;28;20023;-38
2022/04/17 02:35:55;;;;;;;8.85;7.28;;;;;;;9.86;64.70;93103.00;5093287;28;19908;-38
2022/04/17 02:38:21;;;;;;;9.95;7.32;;;;;;;9.73;65.20;93112.19;5093270;28;20501;-38
2022/04/17 02:40:47;;;;;;;8.45;7.20;;;;;;;9.75;66.27;93104.09;5093158;28;20077;-38
2022/04/17 02:43:12;;;;;;;8.38;7.05;;;;;;;9.73;65.86;93100.44;5092915;28;20042;-37
2022/04/17 02:45:38;;;;;;;9.40;7.07;;;;;;;9.54;66.45;93105.56;5092687;28;20077;-37
2022/04/17 02:48:04;;;;;;;9.20;7.35;;;;;;;9.52;67.44;93108.16;5092834;28;20085;-37
2022/04/17 02:50:30;;;;;;;8.23;7.32;;;;;;;9.32;68.56;93101.50;5092709;28;20026;-37
2022/04/17 02:52:56;;;;;;;8.05;5.90;;;;;;;9.11;66.56;93076.13;5092912;28;20024;-38
2022/04/17 02:55:22;;;;;;;6.43;5.55;;;;;;;9.10;66.79;93091.91;5092665;28;20500;-38
2022/04/17 02:57:48;;;;;;;8.48;6.47;;;;;;;9.06;68.02;93086.03;5092526;28;20020;-37
2022/04/17 03:00:14;;;;;;;14.93;9.05;;;;;;;9.07;67.98;93084.75;5092847;28;20027;-37
2022/04/17 03:05:37;;;;;;;9.65;6.93;;;;;;;9.10;68.29;93085.66;5092411;28;20081;-37
2022/04/17 03:08:07;;;;;;;9.07;6.53;;;;;;;9.14;67.79;93106.06;5092735;28;20024;-37
2022/04/17 03:10:34;;;;;;;8.80;6.60;;;;;;;9.09;67.31;93087.72;5092336;28;20024;-38
2022/04/17 03:12:59;;;;;;;12.15;6.82;;;;;;;9.22;67.92;93100.59;5097967;28;20031;-38
2022/04/17 03:15:25;;;;;;;9.45;6.82;;;;;;;9.09;67.97;93107.00;5112560;28;20032;-38
2022/04/17 03:17:51;;;;;;;10.18;6.63;;;;;;;9.14;66.39;93106.06;5112544;28;20050;-37
2022/04/17 03:20:17;;;;;;;7.68;5.70;;;;;;;9.22;67.12;93100.59;5112789;28;20035;-38
2022/04/17 03:22:45;;;;;;;8.15;5.93;;;;;;;9.14;67.65;93092.28;5112789;28;20069;-38
2022/04/17 03:25:11;;;;;;;7.03;5.72;;;;;;;8.96;68.54;93096.13;5112695;28;20076;-37
2022/04/17 03:27:36;;;;;;;5.28;4.63;;;;;;;8.94;68.73;93086.94;5112637;28;20076;-37
2022/04/17 03:30:03;;;;;;;6.72;5.00;;;;;;;8.82;68.69;93080.28;5112640;28;20447;-37
2022/04/17 03:32:29;;;;;;;5.82;5.22;;;;;;;8.71;68.88;93086.84;5112475;28;20015;-38
2022/04/17 03:34:54;;;;;;;7.22;6.43;;;;;;;8.72;69.58;93096.59;5112170;28;20039;-37
2022/04/17 03:37:20;;;;;;;6.82;5.40;;;;;;;8.61;69.09;93101.69;5112208;28;20040;-38
2022/04/17 03:39:46;;;;;;;7.38;5.85;;;;;;;8.46;69.97;93080.34;5112116;28;20047;-38
2022/04/17 03:42:12;;;;;;;8.77;6.40;;;;;;;8.60;69.95;93087.19;5112071;28;20019;-37
2022/04/17 03:44:38;;;;;;;5.90;5.25;;;;;;;8.57;70.20;93085.53;5112209;28;20026;-38
2022/04/17 03:47:05;;;;;;;6.43;4.63;;;;;;;8.60;70.43;93084.44;5112022;28;20038;-38
2022/04/17 03:49:31;;;;;;;5.30;4.05;;;;;;;8.63;68.95;93099.84;5111931;28;20030;-37
2022/04/17 03:51:56;;;;;;;4.55;3.95;;;;;;;8.59;68.36;93093.97;5111731;28;20107;-37
2022/04/17 03:54:22;;;;;;;3.72;3.42;;;;;;;8.75;68.00;93098.25;5111866;28;20084;-38
2022/04/17 03:56:47;;;;;;;4.68;4.03;;;;;;;8.76;69.25;93102.47;5112064;28;20027;-38
2022/04/17 03:59:14;;;;;;;4.72;3.63;;;;;;;8.75;69.21;93114.03;5102306;28;20036;-38
2022/04/17 04:01:40;;;;;;;3.65;3.30;;;;;;;8.75;68.27;93116.78;5091645;28;20024;-38
2022/04/17 04:04:08;;;;;;;3.78;3.13;;;;;;;8.80;66.45;93102.09;5091287;28;20016;-38
2022/04/17 04:06:34;;;;;;;3.78;3.40;;;;;;;8.93;67.37;93110.22;5091265;28;20020;-38
2022/04/17 04:09:00;;;;;;;3.35;3.05;;;;;;;8.83;68.45;93112.78;5091482;28;20047;-37
2022/04/17 04:11:26;;;;;;;3.75;3.33;;;;;;;8.93;68.68;93113.72;5091186;28;20504;-38
2022/04/17 04:13:52;;;;;;;4.13;3.33;;;;;;;8.89;68.07;93104.34;5095445;28;20073;-38
2022/04/17 04:16:18;;;;;;;3.50;3.20;;;;;;;8.97;67.24;93119.59;5090955;28;20432;-37
2022/04/17 04:18:43;;;;;;;5.75;4.70;;;;;;;8.91;69.48;93110.03;5091382;28;20053;-38
2022/04/17 04:21:08;;;;;;;4.22;3.65;;;;;;;8.95;68.91;93102.91;5091222;28;20451;-38
2022/04/17 04:23:35;;;;;;;5.15;4.20;;;;;;;8.97;70.06;93099.59;5091010;28;20020;-38
2022/04/17 04:26:01;;;;;;;3.40;2.70;;;;;;;8.86;69.12;93095.16;5090764;28;20024;-38
2022/04/17 04:28:33;;;;;;;3.70;3.40;;;;;;;8.88;70.28;93105.66;5091238;28;20102;-38
2022/04/17 04:31:02;;;;;;;4.50;3.33;;;;;;;8.76;70.25;93093.47;5090926;28;20024;-38
2022/04/17 04:33:31;;;;;;;3.80;3.45;;;;;;;8.70;71.82;93093.66;5090707;28;20499;-37
2022/04/17 04:35:58;;;;;;;4.43;3.53;;;;;;;8.65;72.27;93100.03;5090703;28;20094;-37
2022/04/17 04:38:24;;;;;;;3.45;3.03;;;;;;;8.48;72.71;93093.56;5091047;28;20081;-38
2022/04/17 04:40:49;;;;;;;4.22;3.42;;;;;;;8.45;72.85;93100.88;5090936;28;20032;-38
2022/04/17 04:43:16;;;;;;;7.05;3.60;;;;;;;8.39;73.31;93092.03;5091005;28;20012;-37
2022/04/17 04:51:09;;;;;;;8.55;4.88;;;;;;;8.36;73.31;93090.38;5090760;28;20527;-38
2022/04/17 04:53:34;;;;;;;6.57;4.50;;;;;;;8.36;73.76;93087.63;5090556;28;20024;-37
2022/04/17 04:56:00;;;;;;;5.07;4.00;;;;;;;8.30;73.91;93087.03;5104303;28;20023;-37
2022/04/17 04:58:25;;;;;;;8.75;4.32;;;;;;;8.27;74.97;93091.59;5110845;27;20028;-38
2022/04/17 05:00:51;;;;;;;4.70;3.72;;;;;;;8.26;75.13;93081.16;5110797;28;20035;-37
2022/04/17 05:03:16;;;;;;;7.20;3.63;;;;;;;8.30;74.62;93081.53;5110704;28;20109;-37
2022/04/17 05:05:42;;;;;;;11.25;6.28;;;;;;;8.32;75.11;93081.72;5110669;28;20031;-37
2022/04/17 05:08:07;;;;;;;5.13;4.40;;;;;;;8.30;74.75;93084.28;5110909;28;20034;-37
2022/04/17 05:10:33;;;;;;;9.10;8.13;;;;;;;8.25;75.13;93076.94;5111008;28;20015;-38
2022/04/17 05:12:59;;;;;;;6.45;5.75;;;;;;;8.30;75.25;93076.03;5105520;28;20425;-37
2022/04/17 05:15:24;;;;;;;8.13;5.78;;;;;;;8.40;75.18;93079.78;5110383;28;20040;-38
2022/04/17 05:17:50;;;;;;;10.32;6.20;;;;;;;8.48;74.21;93090.81;5110906;28;20157;-38
2022/04/17 05:20:15;;;;;;;10.35;7.32;;;;;;;8.45;73.78;93092.63;5110835;28;20152;-38
2022/04/17 05:22:41;;;;;;;9.45;6.20;;;;;;;8.44;74.74;93099.41;5110490;28;20484;-38
2022/04/17 05:25:07;;;;;;;12.73;7.97;;;;;;;8.44;74.71;93088.41;5110702;28;20024;-37
2022/04/17 05:27:32;;;;;;;19.90;9.60;;;;;;;8.44;74.97;93093.91;5110792;28;20528;-38
2022/04/17 05:29:58;;;;;;;14.68;9.27;;;;;;;8.58;75.58;93097.25;5110745;28;20404;-38
2022/04/17 05:32:23;;;;;;;8.93;5.93;;;;;;;8.60;75.75;93098.19;5110793;28;20028;-38
2022/04/17 05:34:49;;;;;;;13.25;5.25;;;;;;;8.58;75.02;93100.75;5110399;28;20659;-38
2022/04/17 05:37:15;;;;;;;11.00;6.32;;;;;;;8.47;75.02;93081.81;5110465;28;20054;-38
2022/04/17 05:39:41;;;;;;;6.07;5.47;;;;;;;8.68;74.29;93098.97;5110321;28;20031;-38
2022/04/17 05:42:07;;;;;;;8.13;4.82;;;;;;;8.53;75.12;93104.41;5110676;28;20024;-37
2022/04/17 05:44:35;;;;;;;4.07;3.67;;;;;;;8.69;74.52;93102.44;5110551;28;20398;-38
2022/04/17 05:47:00;;;;;;;3.38;3.08;;;;;;;8.77;73.38;93103.94;5110909;28;20034;-38
2022/04/17 05:49:26;;;;;;;4.97;4.47;;;;;;;8.81;73.84;93109.84;5114380;28;20020;-38
2022/04/17 05:51:53;;;;;;;4.53;3.97;;;;;;;8.86;74.30;93099.94;5103452;28;20424;-38
2022/04/17 05:54:19;;;;;;;3.40;3.10;;;;;;;8.81;73.02;93101.59;5094122;28;20024;-38
2022/04/17 05:56:45;;;;;;;4.78;4.13;;;;;;;8.75;74.55;93109.25;5092914;28;20078;-38
2022/04/17 05:59:10;;;;;;;4.95;4.45;;;;;;;8.69;74.21;93105.94;5092872;28;20507;-37
2022/04/17 06:01:35;;;;;;;6.00;4.65;;;;;;;8.70;74.43;93104.66;5093610;28;20032;-38
2022/04/17 06:04:04;;;;;;;3.70;3.15;;;;;;;8.52;72.19;93110.44;5093547;28;20028;-38
2022/04/17 06:06:30;;;;;;;6.20;4.45;;;;;;;8.59;74.21;93101.50;5093815;28;20035;-38
2022/04/17 06:08:55;;;;;;;5.10;3.50;;;;;;;8.56;74.84;93108.06;5093852;28;20408;-38
2022/04/17 06:11:20;;;;;;;10.27;6.88;;;;;;;8.58;74.56;93098.00;5093471;28;20408;-38
2022/04/17 06:13:46;;;;;;;6.03;3.95;;;;;;;8.38;74.87;93104.34;5098160;28;20077;-38
2022/04/17 06:16:11;;;;;;;5.68;4.13;;;;;;;8.33;75.37;93100.47;5093171;28;20048;-38
2022/04/17 06:18:37;;;;;;;4.15;3.47;;;;;;;8.28;75.79;93098.59;5093668;28;20032;-38
2022/04/17 06:21:02;;;;;;;3.90;3.22;;;;;;;8.26;76.71;93103.91;5093309;28;20020;-38
2022/04/17 06:23:28;;;;;;;4.10;2.92;;;;;;;8.32;75.23;93101.00;5093276;28;20022;-37
2022/04/17 06:25:54;;;;;;;3.83;2.90;;;;;;;8.25;74.91;93104.44;5093465;28;20408;-38
2022/04/17 06:28:19;;;;;;;4.80;2.95;;;;;;;8.34;76.03;93109.44;5093112;28;20020;-38
2022/04/17 06:30:45;;;;;;;4.57;3.85;;;;;;;8.39;76.81;93103.06;5093167;28;20024;-38
2022/04/17 06:33:10;;;;;;;7.03;5.43;;;;;;;8.57;76.20;93112.31;5093006;28;20023;-39
2022/04/17 06:35:36;;;;;;;14.48;10.75;;;;;;;8.63;77.16;93105.38;5093056;28;20016;-38
2022/04/17 06:38:02;;;;;;;17.23;10.98;;;;;;;8.78;75.47;93099.91;5092952;28;20035;-38
2022/04/17 06:40:33;;;;;;;16.67;9.18;;;;;;;8.82;75.47;93097.53;5092988;28;20048;-38
2022/04/17 06:43:05;;;;;;;5.78;4.00;;;;;;;8.65;75.08;93094.53;5091740;28;20402;-38
2022/04/17 06:45:31;;;;;;;3.75;2.88;;;;;;;8.53;75.52;93109.91;5093069;28;20024;-37
2022/04/17 06:47:57;;;;;;;2.70;2.45;;;;;;;8.48;74.13;93104.56;5102159;28;20424;-38
2022/04/17 06:50:23;;;;;;;12.18;7.07;;;;;;;8.52;76.56;93108.44;5113510;28;20015;-38
2022/04/17 06:52:49;;;;;;;14.95;6.97;;;;;;;8.56;76.88;93110.81;5113095;28;20034;-38
2022/04/17 06:55:15;;;;;;;7.70;4.53;;;;;;;8.53;76.47;93106.41;5113367;28;20020;-38
2022/04/17 06:57:49;;;;;;;9.88;4.70;;;;;;;8.70;78.17;93115.66;5112910;28;20054;-38
2022/04/17 07:00:17;;;;;;;4.95;3.75;;;;;;;8.69;75.80;93105.94;5113284;28;20416;-38
2022/04/17 07:02:43;;;;;;;4.45;3.38;;;;;;;8.71;75.75;93105.38;5112877;28;20485;-38
2022/04/17 07:05:10;;;;;;;3.72;3.33;;;;;;;8.77;76.28;93101.19;5112794;28;20015;-37
2022/04/17 07:07:36;;;;;;;4.88;2.83;;;;;;;8.78;75.60;93104.69;5112791;28;20024;-38
2022/04/17 07:10:02;;;;;;;5.05;3.22;;;;;;;8.87;76.58;93107.66;5112602;28;20026;-38
2022/04/17 07:12:31;;;;;;;2.80;2.60;;;;;;;9.00;73.20;93104.75;5111277;28;20023;-38
2022/04/17 07:15:00;;;;;;;2.92;1.67;;;;;;;8.86;74.65;93077.91;5091900;28;20032;-38
2022/04/17 07:17:39;;;;;;;6.18;4.70;;;;;;;9.16;75.98;93097.25;5091049;28;20487;-38
2022/04/17 07:20:07;;;;;;;2.63;2.30;;;;;;;9.26;74.47;93100.94;5092180;28;20039;-38
2022/04/17 07:22:36;;;;;;;5.53;4.30;;;;;;;9.32;73.99;93100.75;5092378;28;20036;-38
2022/04/17 07:25:03;;;;;;;9.23;5.65;;;;;;;9.48;73.89;93105.03;5092294;28;20020;-38
2022/04/17 07:27:36;;;;;;;8.65;5.43;;;;;;;9.68;74.16;93098.59;5092249;28;20421;-38
2022/04/17 07:30:03;;;;;;;4.07;2.78;;;;;;;9.73;72.62;93108.69;5091938;28;20020;-38
2022/04/17 07:32:30;;;;;;;4.07;3.22;;;;;;;9.89;72.14;93108.16;5090753;28;20020;-38
2022/04/17 07:34:58;;;;;;;3.95;3.28;;;;;;;10.05;73.17;93105.38;5091799;28;20095;-38
2022/04/17 07:37:25;;;;;;;3.78;2.92;;;;;;;10.18;71.97;93111.44;5091920;28;20398;-38
2022/04/17 07:39:51;;;;;;;5.03;3.47;;;;;;;10.19;71.87;93109.44;5091740;28;20030;-38
2022/04/17 07:42:19;;;;;;;3.83;2.83;;;;;;;10.15;71.13;93112.56;5092043;28;20103;-38
2022/04/17 07:44:44;;;;;;;3.03;2.58;;;;;;;10.23;70.83;93098.75;5105463;28;20031;-38
2022/04/17 07:47:10;;;;;;;3.22;2.92;;;;;;;10.17;72.75;93085.16;5111975;28;20088;-38
2022/04/17 07:49:35;;;;;;;6.20;2.90;;;;;;;10.38;73.26;93098.72;5112098;28;20053;-39
2022/04/17 07:52:01;;;;;;;4.80;3.92;;;;;;;10.55;72.18;93098.84;5111839;28;20030;-38
2022/04/17 07:54:26;;;;;;;2.10;1.90;;;;;;;10.40;71.12;93101.66;5111950;28;20023;-38
2022/04/17 07:56:52;;;;;;;1.42;1.33;;;;;;;10.52;69.45;93094.47;5111817;28;20016;-38
2022/04/17 07:59:17;;;;;;;4.40;3.50;;;;;;;10.61;71.71;93094.59;5111764;27;20023;-38
2022/04/17 08:01:45;;;;;;;4.63;4.00;;;;;;;10.80;72.06;93107.97;5112014;28;20022;-38
2022/04/17 08:04:10;;;;;;;3.25;2.55;;;;;;;10.88;68.80;93099.66;5111651;28;20024;-38
2022/04/17 08:06:36;;;;;;;8.75;2.25;;;;;;;10.92;67.86;93097.22;5111671;28;20019;-38
2022/04/17 08:09:02;;;;;;;3.53;2.78;;;;;;;10.95;68.86;93102.38;5111426;28;20038;-38
2022/04/17 08:11:28;;;;;;;2.60;2.40;;;;;;;10.91;67.80;93101.31;5110987;28;20060;-38
2022/04/17 08:13:54;;;;;;;3.17;2.88;;;;;;;10.88;68.97;93094.88;5097629;28;20512;-38
2022/04/17 08:16:20;;;;;;;3.03;2.30;;;;;;;10.85;68.93;93084.91;5090904;28;20032;-38
2022/04/17 08:18:45;;;;;;;7.80;4.55;;;;;;;10.99;69.48;93086.16;5091057;28;20028;-38
2022/04/17 08:21:11;;;;;;;4.13;3.20;;;;;;;11.06;69.44;93081.88;5089730;28;20027;-38
2022/04/17 08:23:37;;;;;;;5.18;4.07;;;;;;;11.05;68.38;93088.69;5090134;28;20099;-38
2022/04/17 08:26:06;;;;;;;2.90;2.60;;;;;;;10.93;68.56;93080.13;5090849;28;20084;-38
2022/04/17 08:28:32;;;;;;;6.10;4.30;;;;;;;10.89;68.68;93087.31;5090856;28;20409;-38
2022/04/17 08:30:58;;;;;;;7.88;5.88;;;;;;;10.91;70.07;93084.72;5091145;28;20024;-38
2022/04/17 08:33:26;;;;;;;10.82;6.95;;;;;;;11.07;70.48;93094.41;5091069;28;20432;-38
2022/04/17 08:35:54;;;;;;;4.72;3.55;;;;;;;10.74;69.26;93098.44;5091111;28;20149;-38
2022/04/17 08:38:21;;;;;;;10.10;6.32;;;;;;;10.63;71.80;93086.50;5091087;28;20024;-38
2022/04/17 08:40:46;;;;;;;12.02;7.28;;;;;;;10.69;71.84;93097.34;5102728;28;20031;-38
2022/04/17 08:43:12;;;;;;;8.95;5.20;;;;;;;10.73;70.93;93096.94;5111009;28;20504;-38
2022/04/17 08:45:38;;;;;;;7.68;4.80;;;;;;;10.71;71.12;93102.28;5110915;28;20522;-38
2022/04/17 08:48:04;;;;;;;18.92;9.32;;;;;;;10.68;70.04;93098.63;5111130;28;20023;-38
2022/04/17 08:50:31;;;;;;;10.57;6.13;;;;;;;10.52;71.62;93103.47;5110977;28;20019;-38
2022/04/17 08:52:58;;;;;;;9.10;5.70;;;;;;;10.26;73.11;93100.41;5110903;28;20034;-38
2022/04/17 08:55:24;;;;;;;15.02;7.65;;;;;;;10.12;73.61;93108.16;5110890;28;20107;-38
2022/04/17 08:57:50;;;;;;;5.53;3.63;;;;;;;10.08;75.04;93101.50;5110810;28;20026;-39
2022/04/17 09:00:20;;;;;;;6.63;4.18;;;;;;;9.99;74.45;93108.31;5111155;28;20028;-37
2022/04/17 09:02:47;;;;;;;13.88;6.30;;;;;;;9.78;75.04;93099.50;5110825;28;20063;-37
2022/04/17 09:05:20;;;;;;;7.25;4.43;;;;;;;9.75;75.24;93103.38;5110870;28;20034;-38
2022/04/17 09:07:51;;;;;;;17.60;9.43;;;;;;;9.75;76.72;93093.09;5111106;28;20028;-38
2022/04/17 09:10:29;;;;;;;19.27;9.20;;;;;;;9.70;76.93;93104.31;5110958;28;20457;-37
2022/04/17 09:13:04;;;;;;;13.10;6.88;;;;;;;9.79;76.58;93095.47;5105432;28;20441;-38
2022/04/17 09:15:37;;;;;;;3.45;2.83;;;;;;;9.73;74.83;93083.88;5090182;28;20043;-38
2022/04/17 09:18:08;;;;;;;8.40;5.55;;;;;;;9.52;77.33;93088.84;5090224;28;20032;-37
2022/04/17 09:20:33;;;;;;;10.93;7.47;;;;;;;9.45;78.38;93071.03;5090522;28;20390;-38
2022/04/17 09:23:00;;;;;;;8.35;4.05;;;;;;;9.53;78.14;93082.06;5094626;28;20020;-38
2022/04/17 09:25:26;;;;;;;6.25;5.20;;;;;;;9.56;78.44;93086.47;5094643;28;20051;-38
2022/04/17 09:28:14;;;;;;;19.75;12.38;;;;;;;9.69;77.66;93083.53;5092941;28;20417;-38
2022/04/17 09:30:45;;;;;;;12.77;9.18;;;;;;;9.84;77.90;93075.25;5094356;28;20024;-38
2022/04/17 09:33:14;;;;;;;8.95;5.82;;;;;;;9.93;77.71;93063.66;5094212;28;20031;-38
2022/04/17 09:35:41;;;;;;;4.65;2.35;;;;;;;9.86;77.18;93058.88;5094893;28;20022;-38
2022/04/17 09:38:07;;;;;;;2.83;1.50;;;;;;;9.87;77.52;93063.13;5114904;28;20016;-37
2022/04/17 09:40:36;;;;;;;4.43;2.35;;;;;;;9.89;76.93;93058.53;5114796;28;20407;-38
2022/04/17 09:43:12;;;;;;;5.95;2.78;;;;;;;10.04;76.12;93054.25;5114536;28;20465;-38
2022/04/17 09:45:57;;;;;;;3.53;2.33;;;;;;;10.32;76.19;93052.00;5114728;28;20046;-38
2022/04/17 09:48:23;;;;;;;4.72;2.83;;;;;;;10.50;75.22;93042.56;5114598;28;20031;-38
2022/04/17 09:50:48;;;;;;;2.70;2.00;;;;;;;10.71;74.85;93045.06;5114370;28;20446;-38
2022/04/17 09:53:34;;;;;;;1.98;1.77;;;;;;;10.90;73.87;93039.81;5114567;28;20080;-38
2022/04/17 09:56:04;;;;;;;2.05;1.48;;;;;;;11.01;72.91;93046.91;5114209;28;20024;-37
2022/04/17 09:58:30;;;;;;;3.58;2.60;;;;;;;11.28;74.08;93034.06;5114227;28;20100;-38
2022/04/17 10:00:58;;;;;;;2.33;1.50;;;;;;;11.09;71.40;93039.31;5112994;28;20051;-38
2022/04/17 10:03:23;;;;;;;3.25;1.05;;;;;;;10.99;71.61;93030.91;5114050;28;20031;-38
2022/04/17 10:05:49;;;;;;;19.58;1.40;;;;;;;10.88;72.15;93042.38;5114012;28;20069;-37
2022/04/17 10:08:15;;;;;;;3.92;2.85;;;;;;;10.86;73.40;93036.69;5113990;28;20489;-38
2022/04/17 10:10:40;;;;;;;3.47;2.08;;;;;;;10.90;72.87;93034.28;5113895;28;20023;-38
2022/04/17 10:13:06;;;;;;;2.22;1.70;;;;;;;10.79;72.63;93023.66;5106869;28;20033;-38
2022/04/17 10:15:32;;;;;;;1.63;1.40;;;;;;;10.82;72.04;93033.59;5093248;28;20032;-37
2022/04/17 10:17:59;;;;;;;1.02;0.93;;;;;;;10.87;70.63;93026.38;5092248;28;20071;-38
2022/04/17 10:20:25;;;;;;;1.17;0.88;;;;;;;10.68;70.12;93023.38;5092193;28;20024;-38
2022/04/17 10:22:57;;;;;;;0.93;0.60;;;;;;;10.73;70.67;93022.41;5093294;28;20027;-37
2022/04/17 10:25:23;;;;;;;0.73;0.55;;;;;;;10.78;69.36;93035.25;5092454;28;20394;-38
2022/04/17 10:27:55;;;;;;;0.90;0.73;;;;;;;10.47;70.08;93029.88;5092053;28;20024;-38
2022/04/17 10:30:25;;;;;;;1.23;1.13;;;;;;;10.47;70.10;93018.09;5093216;28;20027;-38
2022/04/17 10:33:13;;;;;;;1.65;1.00;;;;;;;10.43;70.69;93031.56;5100594;28;20024;-37
2022/04/17 10:36:03;;;;;;;2.00;1.60;;;;;;;10.35;69.84;93012.25;5093408;28;20036;-38
2022/04/17 10:38:31;;;;;;;0.90;0.80;;;;;;;10.27;71.86;93008.06;5113467;28;20404;-38
2022/04/17 10:41:07;;;;;;;0.77;0.77;;;;;;;10.44;69.75;93013.69;5112207;28;20042;-37
2022/04/17 10:43:57;;;;;;;0.90;0.70;;;;;;;10.42;70.77;93003.22;5112452;28;20023;-38
2022/04/17 10:46:23;;;;;;;2.58;0.98;;;;;;;10.58;71.89;93003.88;5106694;27;20031;-37
2022/04/17 10:48:57;;;;;;;5.18;1.35;;;;;;;10.75;70.65;93006.75;5113486;28;20467;-37
2022/04/17 10:51:27;;;;;;;5.40;2.20;;;;;;;10.55;67.96;93013.28;5113433;28;20034;-38
2022/04/17 10:54:03;;;;;;;13.90;4.72;;;;;;;10.50;69.31;93017.00;5113370;28;20424;-37
2022/04/17 10:56:30;;;;;;;4.88;2.10;;;;;;;10.46;71.24;93008.38;5113416;28;20035;-37
2022/04/17 10:58:57;;;;;;;8.70;3.70;;;;;;;10.74;70.16;93010.06;5112889;28;20082;-37
2022/04/17 11:01:41;;;;;;;31.13;8.82;;;;;;;10.85;68.79;93010.34;5112916;28;20504;-38
2022/04/17 11:04:19;;;;;;;13.75;4.55;;;;;;;10.75;68.87;93003.25;5112907;28;20068;-38
2022/04/17 11:06:45;;;;;;;1.30;1.20;;;;;;;10.71;67.29;93005.66;5113099;28;20080;-37
2022/04/17 11:09:21;;;;;;;1.80;1.30;;;;;;;10.85;68.26;92999.31;5112732;27;20035;-37
2022/04/17 11:11:47;;;;;;;0.77;0.77;;;;;;;10.78;67.16;93002.88;5112812;28;20027;-37
2022/04/17 11:14:14;;;;;;;1.00;0.85;;;;;;;10.35;67.04;93022.56;5096332;28;20405;-38
2022/04/17 11:16:53;;;;;;;3.25;1.27;;;;;;;9.94;67.32;93016.22;5092314;28;20039;-37
2022/04/17 11:19:31;;;;;;;1.88;1.30;;;;;;;10.18;69.59;93009.38;5092595;28;20024;-37
2022/04/17 11:22:07;;;;;;;1.45;1.23;;;;;;;10.18;69.16;93008.66;5092536;28;20024;-38
2022/04/17 11:24:54;;;;;;;1.52;1.13;;;;;;;10.06;68.01;93011.03;5092136;28;20031;-38
2022/04/17 11:27:36;;;;;;;2.72;1.40;;;;;;;9.81;69.24;93002.63;5092383;28;20031;-37
2022/04/17 11:30:03;;;;;;;1.35;1.00;;;;;;;9.50;70.81;93011.50;5108168;28;20035;-37
2022/04/17 11:32:31;;;;;;;2.53;1.80;;;;;;;9.36;71.02;93010.22;5111188;28;20118;-37
2022/04/17 11:35:00;;;;;;;6.00;3.42;;;;;;;9.25;70.89;93007.84;5112587;28;20031;-38
2022/04/17 11:37:27;;;;;;;2.35;1.90;;;;;;;9.08;72.41;93006.38;5112325;28;20055;-37
2022/04/17 11:39:55;;;;;;;5.78;3.50;;;;;;;9.02;72.03;92989.28;5112769;27;20036;-37
2022/04/17 11:42:21;;;;;;;2.28;1.40;;;;;;;9.12;71.53;93003.97;5112224;28;20565;-37
2022/04/17 11:44:48;;;;;;;3.20;2.20;;;;;;;9.21;71.17;93005.44;5110905;28;20033;-37
2022/04/17 11:47:18;;;;;;;2.78;2.08;;;;;;;9.08;70.29;93000.13;5112597;28;20036;-37
2022/04/17 11:49:44;;;;;;;6.22;3.25;;;;;;;9.14;71.27;92992.41;5112037;28;20059;-37